sensor_id;sensor_type;location;lat;lon;timestamp;P1;durP1;ratioP1;P2;durP2;ratioP2
68050;SDS011;54839;51.364;7.246;2023-06-14T00:00:13;8.03;;;6.60;;
68050;SDS011;54839;51.364;7.246;2023-06-14T00:02:39;8.07;;;6.40;;
68050;SDS011;54839;51.364;7.246;2023-06-14T00:05:05;7.30;;;6.60;;
68050;SDS011;54839;51.364;7.246;2023-06-14T00:07:35;6.73;;;6.03;;
68050;SDS011;54839;51.364;7.246;2023-06-14T00:10:03;7.20;;;6.60;;
68050;SDS011;54839;51.364;7.246;2023-06-14T00:12:29;10.03;;;6.47;;
68050;SDS011;54839;51.364;7.246;2023-06-14T00:14:56;7.30;;;6.40;;
68050;SDS011;54839;51.364;7.246;2023-06-14T00:17:21;6.90;;;6.23;;
68050;SDS011;54839;51.364;7.246;2023-06-14T00:19:47;7.37;;;6.67;;
68050;SDS011;54839;51.364;7.246;2023-06-14T00:22:13;8.30;;;5.90;;
68050;SDS011;54839;51.364;7.246;2023-06-14T00:24:38;8.47;;;7.60;;
68050;SDS011;54839;51.364;7.246;2023-06-14T00:27:04;7.13;;;6.47;;
68050;SDS011;54839;51.364;7.246;2023-06-14T00:29:30;9.50;;;6.10;;
68050;SDS011;54839;51.364;7.246;2023-06-14T00:31:55;7.53;;;6.77;;
68050;SDS011;54839;51.364;7.246;2023-06-14T00:34:21;9.17;;;6.70;;
68050;SDS011;54839;51.364;7.246;2023-06-14T00:36:46;6.83;;;6.13;;
68050;SDS011;54839;51.364;7.246;2023-06-14T00:39:12;7.33;;;6.63;;
68050;SDS011;54839;51.364;7.246;2023-06-14T00:41:39;8.20;;;7.40;;
68050;SDS011;54839;51.364;7.246;2023-06-14T00:44:04;6.30;;;5.80;;
68050;SDS011;54839;51.364;7.246;2023-06-14T00:46:30;7.77;;;7.07;;
68050;SDS011;54839;51.364;7.246;2023-06-14T00:48:55;8.10;;;6.73;;
68050;SDS011;54839;51.364;7.246;2023-06-14T00:51:23;7.60;;;6.90;;
68050;SDS011;54839;51.364;7.246;2023-06-14T00:53:49;7.33;;;6.63;;
68050;SDS011;54839;51.364;7.246;2023-06-14T00:56:15;9.07;;;7.50;;
68050;SDS011;54839;51.364;7.246;2023-06-14T00:58:41;9.77;;;7.07;;
68050;SDS011;54839;51.364;7.246;2023-06-14T01:01:08;8.20;;;7.20;;
68050;SDS011;54839;51.364;7.246;2023-06-14T01:03:33;7.23;;;6.53;;
68050;SDS011;54839;51.364;7.246;2023-06-14T01:06:01;8.20;;;7.50;;
68050;SDS011;54839;51.364;7.246;2023-06-14T01:08:54;7.63;;;6.67;;
68050;SDS011;54839;51.364;7.246;2023-06-14T01:11:26;8.40;;;7.60;;
68050;SDS011;54839;51.364;7.246;2023-06-14T01:13:56;6.77;;;5.83;;
68050;SDS011;54839;51.364;7.246;2023-06-14T01:16:26;8.57;;;7.47;;
68050;SDS011;54839;51.364;7.246;2023-06-14T01:18:52;7.80;;;7.00;;
68050;SDS011;54839;51.364;7.246;2023-06-14T01:21:24;6.90;;;6.40;;
68050;SDS011;54839;51.364;7.246;2023-06-14T01:23:50;9.27;;;7.60;;
68050;SDS011;54839;51.364;7.246;2023-06-14T01:26:18;7.33;;;6.57;;
68050;SDS011;54839;51.364;7.246;2023-06-14T01:28:44;9.43;;;6.07;;
68050;SDS011;54839;51.364;7.246;2023-06-14T01:31:13;7.43;;;6.83;;
68050;SDS011;54839;51.364;7.246;2023-06-14T01:33:41;8.03;;;7.33;;
68050;SDS011;54839;51.364;7.246;2023-06-14T01:36:08;7.20;;;6.40;;
68050;SDS011;54839;51.364;7.246;2023-06-14T01:38:34;7.00;;;6.40;;
68050;SDS011;54839;51.364;7.246;2023-06-14T01:41:02;9.67;;;6.03;;
68050;SDS011;54839;51.364;7.246;2023-06-14T01:43:29;8.83;;;6.90;;
68050;SDS011;54839;51.364;7.246;2023-06-14T01:45:56;7.37;;;6.67;;
68050;SDS011;54839;51.364;7.246;2023-06-14T01:48:22;8.23;;;7.33;;
68050;SDS011;54839;51.364;7.246;2023-06-14T01:50:49;7.27;;;6.57;;
68050;SDS011;54839;51.364;7.246;2023-06-14T01:53:15;7.07;;;6.37;;
68050;SDS011;54839;51.364;7.246;2023-06-14T01:55:41;9.63;;;7.30;;
68050;SDS011;54839;51.364;7.246;2023-06-14T01:58:09;7.10;;;6.40;;
68050;SDS011;54839;51.364;7.246;2023-06-14T02:00:38;7.93;;;7.13;;
68050;SDS011;54839;51.364;7.246;2023-06-14T02:03:03;9.40;;;6.40;;
68050;SDS011;54839;51.364;7.246;2023-06-14T02:05:29;7.97;;;7.27;;
68050;SDS011;54839;51.364;7.246;2023-06-14T02:07:55;10.63;;;7.80;;
68050;SDS011;54839;51.364;7.246;2023-06-14T02:10:21;7.50;;;6.80;;
68050;SDS011;54839;51.364;7.246;2023-06-14T02:12:46;8.40;;;6.70;;
68050;SDS011;54839;51.364;7.246;2023-06-14T02:15:12;6.93;;;6.30;;
68050;SDS011;54839;51.364;7.246;2023-06-14T02:17:42;7.70;;;6.03;;
68050;SDS011;54839;51.364;7.246;2023-06-14T02:20:08;8.27;;;5.90;;
68050;SDS011;54839;51.364;7.246;2023-06-14T02:22:34;8.83;;;6.37;;
68050;SDS011;54839;51.364;7.246;2023-06-14T02:25:00;7.10;;;6.03;;
68050;SDS011;54839;51.364;7.246;2023-06-14T02:27:25;6.40;;;5.73;;
68050;SDS011;54839;51.364;7.246;2023-06-14T02:29:51;6.80;;;6.20;;
68050;SDS011;54839;51.364;7.246;2023-06-14T02:32:16;7.10;;;5.67;;
68050;SDS011;54839;51.364;7.246;2023-06-14T02:34:42;5.27;;;4.87;;
68050;SDS011;54839;51.364;7.246;2023-06-14T02:37:08;6.40;;;5.80;;
68050;SDS011;54839;51.364;7.246;2023-06-14T02:39:33;9.00;;;6.70;;
68050;SDS011;54839;51.364;7.246;2023-06-14T02:42:00;6.03;;;5.50;;
68050;SDS011;54839;51.364;7.246;2023-06-14T02:44:25;11.13;;;7.17;;
68050;SDS011;54839;51.364;7.246;2023-06-14T02:46:54;7.50;;;5.97;;
68050;SDS011;54839;51.364;7.246;2023-06-14T02:49:21;7.13;;;6.43;;
68050;SDS011;54839;51.364;7.246;2023-06-14T02:51:47;9.03;;;5.50;;
68050;SDS011;54839;51.364;7.246;2023-06-14T02:54:12;7.30;;;6.70;;
68050;SDS011;54839;51.364;7.246;2023-06-14T02:56:38;6.90;;;6.30;;
68050;SDS011;54839;51.364;7.246;2023-06-14T02:59:04;7.43;;;6.80;;
68050;SDS011;54839;51.364;7.246;2023-06-14T03:01:29;7.67;;;6.43;;
68050;SDS011;54839;51.364;7.246;2023-06-14T03:03:58;6.97;;;6.23;;
68050;SDS011;54839;51.364;7.246;2023-06-14T03:06:24;10.23;;;6.27;;
68050;SDS011;54839;51.364;7.246;2023-06-14T03:08:50;8.27;;;7.47;;
68050;SDS011;54839;51.364;7.246;2023-06-14T03:11:16;7.80;;;7.13;;
68050;SDS011;54839;51.364;7.246;2023-06-14T03:13:45;12.03;;;7.90;;
68050;SDS011;54839;51.364;7.246;2023-06-14T03:16:11;7.67;;;6.47;;
68050;SDS011;54839;51.364;7.246;2023-06-14T03:18:37;7.70;;;5.90;;
68050;SDS011;54839;51.364;7.246;2023-06-14T03:21:03;9.03;;;7.10;;
68050;SDS011;54839;51.364;7.246;2023-06-14T03:23:28;6.60;;;5.87;;
68050;SDS011;54839;51.364;7.246;2023-06-14T03:25:54;7.13;;;6.53;;
68050;SDS011;54839;51.364;7.246;2023-06-14T03:28:20;7.57;;;6.00;;
68050;SDS011;54839;51.364;7.246;2023-06-14T03:30:46;7.67;;;6.90;;
68050;SDS011;54839;51.364;7.246;2023-06-14T03:33:11;10.53;;;6.43;;
68050;SDS011;54839;51.364;7.246;2023-06-14T03:35:37;7.40;;;6.60;;
68050;SDS011;54839;51.364;7.246;2023-06-14T03:38:02;6.83;;;5.90;;
68050;SDS011;54839;51.364;7.246;2023-06-14T03:40:28;7.33;;;6.53;;
68050;SDS011;54839;51.364;7.246;2023-06-14T03:42:54;6.97;;;6.13;;
68050;SDS011;54839;51.364;7.246;2023-06-14T03:45:20;7.40;;;5.90;;
68050;SDS011;54839;51.364;7.246;2023-06-14T03:47:46;9.90;;;6.57;;
68050;SDS011;54839;51.364;7.246;2023-06-14T03:50:12;9.80;;;6.50;;
68050;SDS011;54839;51.364;7.246;2023-06-14T03:52:38;9.80;;;6.60;;
68050;SDS011;54839;51.364;7.246;2023-06-14T03:55:04;7.37;;;6.40;;
68050;SDS011;54839;51.364;7.246;2023-06-14T03:57:30;7.73;;;7.00;;
68050;SDS011;54839;51.364;7.246;2023-06-14T03:59:56;9.70;;;7.43;;
68050;SDS011;54839;51.364;7.246;2023-06-14T04:02:22;11.30;;;7.13;;
68050;SDS011;54839;51.364;7.246;2023-06-14T04:04:47;6.67;;;5.97;;
68050;SDS011;54839;51.364;7.246;2023-06-14T04:07:14;7.93;;;6.77;;
68050;SDS011;54839;51.364;7.246;2023-06-14T04:09:40;8.43;;;6.43;;
68050;SDS011;54839;51.364;7.246;2023-06-14T04:12:06;6.87;;;5.73;;
68050;SDS011;54839;51.364;7.246;2023-06-14T04:14:36;12.97;;;6.00;;
68050;SDS011;54839;51.364;7.246;2023-06-14T04:17:02;9.00;;;6.60;;
68050;SDS011;54839;51.364;7.246;2023-06-14T04:19:27;6.53;;;5.87;;
68050;SDS011;54839;51.364;7.246;2023-06-14T04:21:53;9.53;;;6.87;;
68050;SDS011;54839;51.364;7.246;2023-06-14T04:24:18;6.60;;;5.60;;
68050;SDS011;54839;51.364;7.246;2023-06-14T04:26:44;6.30;;;5.70;;
68050;SDS011;54839;51.364;7.246;2023-06-14T04:29:10;6.93;;;5.80;;
68050;SDS011;54839;51.364;7.246;2023-06-14T04:31:41;6.80;;;4.83;;
68050;SDS011;54839;51.364;7.246;2023-06-14T04:34:07;11.23;;;5.57;;
68050;SDS011;54839;51.364;7.246;2023-06-14T04:36:33;10.47;;;5.57;;
68050;SDS011;54839;51.364;7.246;2023-06-14T04:38:59;6.93;;;4.87;;
68050;SDS011;54839;51.364;7.246;2023-06-14T04:41:26;5.20;;;4.70;;
68050;SDS011;54839;51.364;7.246;2023-06-14T04:43:55;7.60;;;5.70;;
68050;SDS011;54839;51.364;7.246;2023-06-14T04:46:29;9.40;;;5.13;;
68050;SDS011;54839;51.364;7.246;2023-06-14T04:48:57;10.70;;;4.80;;
68050;SDS011;54839;51.364;7.246;2023-06-14T04:51:26;6.87;;;4.80;;
68050;SDS011;54839;51.364;7.246;2023-06-14T04:53:57;8.57;;;5.00;;
68050;SDS011;54839;51.364;7.246;2023-06-14T04:56:23;6.07;;;5.43;;
68050;SDS011;54839;51.364;7.246;2023-06-14T04:58:50;5.30;;;4.80;;
68050;SDS011;54839;51.364;7.246;2023-06-14T05:01:15;7.30;;;4.93;;
68050;SDS011;54839;51.364;7.246;2023-06-14T05:03:41;5.53;;;4.67;;
68050;SDS011;54839;51.364;7.246;2023-06-14T05:06:09;6.87;;;5.40;;
68050;SDS011;54839;51.364;7.246;2023-06-14T05:08:36;8.90;;;4.77;;
68050;SDS011;54839;51.364;7.246;2023-06-14T05:11:02;8.10;;;4.50;;
68050;SDS011;54839;51.364;7.246;2023-06-14T05:13:27;5.17;;;4.27;;
68050;SDS011;54839;51.364;7.246;2023-06-14T05:15:53;4.50;;;4.10;;
68050;SDS011;54839;51.364;7.246;2023-06-14T05:18:18;8.27;;;5.30;;
68050;SDS011;54839;51.364;7.246;2023-06-14T05:20:44;10.07;;;4.53;;
68050;SDS011;54839;51.364;7.246;2023-06-14T05:23:11;5.80;;;4.70;;
68050;SDS011;54839;51.364;7.246;2023-06-14T05:25:40;5.17;;;4.20;;
68050;SDS011;54839;51.364;7.246;2023-06-14T05:28:07;7.13;;;4.83;;
68050;SDS011;54839;51.364;7.246;2023-06-14T05:30:32;6.37;;;5.20;;
68050;SDS011;54839;51.364;7.246;2023-06-14T05:32:58;21.63;;;8.23;;
68050;SDS011;54839;51.364;7.246;2023-06-14T05:35:23;13.23;;;6.07;;
68050;SDS011;54839;51.364;7.246;2023-06-14T05:37:51;5.27;;;4.70;;
68050;SDS011;54839;51.364;7.246;2023-06-14T05:40:17;14.73;;;8.20;;
68050;SDS011;54839;51.364;7.246;2023-06-14T05:42:43;7.27;;;4.57;;
68050;SDS011;54839;51.364;7.246;2023-06-14T05:45:09;8.43;;;4.40;;
68050;SDS011;54839;51.364;7.246;2023-06-14T05:47:35;8.07;;;5.00;;
68050;SDS011;54839;51.364;7.246;2023-06-14T05:50:00;5.33;;;4.23;;
68050;SDS011;54839;51.364;7.246;2023-06-14T05:52:26;8.60;;;4.77;;
68050;SDS011;54839;51.364;7.246;2023-06-14T05:54:51;7.30;;;5.00;;
68050;SDS011;54839;51.364;7.246;2023-06-14T05:57:17;5.20;;;4.30;;
68050;SDS011;54839;51.364;7.246;2023-06-14T05:59:42;7.53;;;4.80;;
68050;SDS011;54839;51.364;7.246;2023-06-14T06:02:08;8.53;;;4.50;;
68050;SDS011;54839;51.364;7.246;2023-06-14T06:04:33;11.30;;;4.90;;
68050;SDS011;54839;51.364;7.246;2023-06-14T06:06:59;8.40;;;4.93;;
68050;SDS011;54839;51.364;7.246;2023-06-14T06:09:24;8.60;;;4.67;;
68050;SDS011;54839;51.364;7.246;2023-06-14T06:11:50;11.40;;;4.73;;
68050;SDS011;54839;51.364;7.246;2023-06-14T06:14:15;5.10;;;4.60;;
68050;SDS011;54839;51.364;7.246;2023-06-14T06:16:41;4.53;;;4.10;;
68050;SDS011;54839;51.364;7.246;2023-06-14T06:19:06;4.60;;;3.83;;
68050;SDS011;54839;51.364;7.246;2023-06-14T06:21:32;5.27;;;4.30;;
68050;SDS011;54839;51.364;7.246;2023-06-14T06:23:58;8.37;;;4.57;;
68050;SDS011;54839;51.364;7.246;2023-06-14T06:26:23;4.30;;;3.80;;
68050;SDS011;54839;51.364;7.246;2023-06-14T06:28:49;10.30;;;9.30;;
68050;SDS011;54839;51.364;7.246;2023-06-14T06:31:14;11.27;;;6.90;;
68050;SDS011;54839;51.364;7.246;2023-06-14T06:33:40;7.00;;;4.97;;
68050;SDS011;54839;51.364;7.246;2023-06-14T06:36:05;5.03;;;4.63;;
68050;SDS011;54839;51.364;7.246;2023-06-14T06:38:31;7.37;;;4.57;;
68050;SDS011;54839;51.364;7.246;2023-06-14T06:40:56;6.87;;;5.00;;
68050;SDS011;54839;51.364;7.246;2023-06-14T06:43:22;5.50;;;3.17;;
68050;SDS011;54839;51.364;7.246;2023-06-14T06:45:48;5.13;;;3.30;;
68050;SDS011;54839;51.364;7.246;2023-06-14T06:48:13;5.17;;;3.43;;
68050;SDS011;54839;51.364;7.246;2023-06-14T06:50:39;5.60;;;3.47;;
68050;SDS011;54839;51.364;7.246;2023-06-14T06:53:04;6.33;;;4.23;;
68050;SDS011;54839;51.364;7.246;2023-06-14T06:55:31;7.00;;;3.70;;
68050;SDS011;54839;51.364;7.246;2023-06-14T06:57:57;4.20;;;3.70;;
68050;SDS011;54839;51.364;7.246;2023-06-14T07:00:22;6.90;;;4.47;;
68050;SDS011;54839;51.364;7.246;2023-06-14T07:02:48;5.73;;;4.10;;
68050;SDS011;54839;51.364;7.246;2023-06-14T07:05:14;3.97;;;3.20;;
68050;SDS011;54839;51.364;7.246;2023-06-14T07:07:39;3.60;;;3.30;;
68050;SDS011;54839;51.364;7.246;2023-06-14T07:10:05;5.10;;;3.00;;
68050;SDS011;54839;51.364;7.246;2023-06-14T07:12:32;2.20;;;1.87;;
68050;SDS011;54839;51.364;7.246;2023-06-14T07:14:58;5.37;;;2.50;;
68050;SDS011;54839;51.364;7.246;2023-06-14T07:17:25;3.30;;;2.23;;
68050;SDS011;54839;51.364;7.246;2023-06-14T07:19:50;3.27;;;2.90;;
68050;SDS011;54839;51.364;7.246;2023-06-14T07:22:16;3.97;;;2.63;;
68050;SDS011;54839;51.364;7.246;2023-06-14T07:24:42;2.60;;;2.40;;
68050;SDS011;54839;51.364;7.246;2023-06-14T07:27:08;4.07;;;2.40;;
68050;SDS011;54839;51.364;7.246;2023-06-14T07:29:33;2.17;;;2.07;;
68050;SDS011;54839;51.364;7.246;2023-06-14T07:31:59;2.50;;;2.30;;
68050;SDS011;54839;51.364;7.246;2023-06-14T07:34:25;3.47;;;2.40;;
68050;SDS011;54839;51.364;7.246;2023-06-14T07:36:51;2.80;;;1.90;;
68050;SDS011;54839;51.364;7.246;2023-06-14T07:39:16;2.90;;;2.00;;
68050;SDS011;54839;51.364;7.246;2023-06-14T07:41:42;3.20;;;2.70;;
68050;SDS011;54839;51.364;7.246;2023-06-14T07:44:07;4.40;;;3.23;;
68050;SDS011;54839;51.364;7.246;2023-06-14T07:46:33;2.97;;;2.60;;
68050;SDS011;54839;51.364;7.246;2023-06-14T07:48:59;4.27;;;2.60;;
68050;SDS011;54839;51.364;7.246;2023-06-14T07:51:25;3.27;;;2.30;;
68050;SDS011;54839;51.364;7.246;2023-06-14T07:53:50;3.07;;;2.60;;
68050;SDS011;54839;51.364;7.246;2023-06-14T07:56:16;3.40;;;1.90;;
68050;SDS011;54839;51.364;7.246;2023-06-14T07:58:41;2.97;;;2.57;;
68050;SDS011;54839;51.364;7.246;2023-06-14T08:01:07;4.47;;;2.70;;
68050;SDS011;54839;51.364;7.246;2023-06-14T08:03:33;6.23;;;2.57;;
68050;SDS011;54839;51.364;7.246;2023-06-14T08:05:59;6.33;;;2.50;;
68050;SDS011;54839;51.364;7.246;2023-06-14T08:08:25;8.50;;;2.27;;
68050;SDS011;54839;51.364;7.246;2023-06-14T08:10:51;4.30;;;2.90;;
68050;SDS011;54839;51.364;7.246;2023-06-14T08:13:17;5.23;;;2.33;;
68050;SDS011;54839;51.364;7.246;2023-06-14T08:15:42;4.93;;;2.67;;
68050;SDS011;54839;51.364;7.246;2023-06-14T08:18:08;5.60;;;2.77;;
68050;SDS011;54839;51.364;7.246;2023-06-14T08:20:33;4.20;;;2.70;;
68050;SDS011;54839;51.364;7.246;2023-06-14T08:23:00;2.67;;;2.03;;
68050;SDS011;54839;51.364;7.246;2023-06-14T08:25:27;3.10;;;2.30;;
68050;SDS011;54839;51.364;7.246;2023-06-14T08:27:52;4.80;;;2.50;;
68050;SDS011;54839;51.364;7.246;2023-06-14T08:30:18;4.40;;;2.37;;
68050;SDS011;54839;51.364;7.246;2023-06-14T08:32:44;3.00;;;2.30;;
68050;SDS011;54839;51.364;7.246;2023-06-14T08:35:09;4.13;;;2.17;;
68050;SDS011;54839;51.364;7.246;2023-06-14T08:37:39;2.77;;;1.70;;
68050;SDS011;54839;51.364;7.246;2023-06-14T08:40:29;4.00;;;3.00;;
68050;SDS011;54839;51.364;7.246;2023-06-14T08:42:54;3.43;;;2.60;;
68050;SDS011;54839;51.364;7.246;2023-06-14T08:45:20;2.23;;;2.03;;
68050;SDS011;54839;51.364;7.246;2023-06-14T08:47:47;5.47;;;1.83;;
68050;SDS011;54839;51.364;7.246;2023-06-14T08:50:23;2.37;;;2.07;;
68050;SDS011;54839;51.364;7.246;2023-06-14T08:52:55;2.53;;;2.10;;
68050;SDS011;54839;51.364;7.246;2023-06-14T08:55:25;4.17;;;2.80;;
68050;SDS011;54839;51.364;7.246;2023-06-14T08:57:53;3.10;;;2.13;;
68050;SDS011;54839;51.364;7.246;2023-06-14T09:00:20;2.90;;;1.80;;
68050;SDS011;54839;51.364;7.246;2023-06-14T09:02:46;7.40;;;2.50;;
68050;SDS011;54839;51.364;7.246;2023-06-14T09:05:12;2.70;;;2.03;;
68050;SDS011;54839;51.364;7.246;2023-06-14T09:07:39;6.83;;;3.00;;
68050;SDS011;54839;51.364;7.246;2023-06-14T09:10:06;3.27;;;2.20;;
68050;SDS011;54839;51.364;7.246;2023-06-14T09:12:33;2.80;;;1.90;;
68050;SDS011;54839;51.364;7.246;2023-06-14T09:14:59;3.30;;;1.63;;
68050;SDS011;54839;51.364;7.246;2023-06-14T09:17:25;1.83;;;1.63;;
68050;SDS011;54839;51.364;7.246;2023-06-14T09:19:51;3.17;;;1.57;;
68050;SDS011;54839;51.364;7.246;2023-06-14T09:22:16;1.93;;;1.83;;
68050;SDS011;54839;51.364;7.246;2023-06-14T09:24:42;1.57;;;1.47;;
68050;SDS011;54839;51.364;7.246;2023-06-14T09:27:07;4.90;;;1.80;;
68050;SDS011;54839;51.364;7.246;2023-06-14T09:29:33;2.67;;;1.37;;
68050;SDS011;54839;51.364;7.246;2023-06-14T09:31:58;3.03;;;1.60;;
68050;SDS011;54839;51.364;7.246;2023-06-14T09:34:24;4.87;;;1.63;;
68050;SDS011;54839;51.364;7.246;2023-06-14T09:36:50;2.40;;;1.80;;
68050;SDS011;54839;51.364;7.246;2023-06-14T09:39:16;1.87;;;1.53;;
68050;SDS011;54839;51.364;7.246;2023-06-14T09:41:43;3.57;;;2.10;;
68050;SDS011;54839;51.364;7.246;2023-06-14T09:44:10;1.87;;;1.77;;
68050;SDS011;54839;51.364;7.246;2023-06-14T09:46:39;2.00;;;1.90;;
68050;SDS011;54839;51.364;7.246;2023-06-14T09:49:04;11.27;;;2.80;;
68050;SDS011;54839;51.364;7.246;2023-06-14T09:51:31;6.67;;;2.83;;
68050;SDS011;54839;51.364;7.246;2023-06-14T09:54:00;3.33;;;2.10;;
68050;SDS011;54839;51.364;7.246;2023-06-14T09:56:29;2.33;;;1.87;;
68050;SDS011;54839;51.364;7.246;2023-06-14T09:58:59;4.50;;;1.67;;
68050;SDS011;54839;51.364;7.246;2023-06-14T10:01:27;4.00;;;2.50;;
68050;SDS011;54839;51.364;7.246;2023-06-14T10:04:00;1.90;;;1.80;;
68050;SDS011;54839;51.364;7.246;2023-06-14T10:06:28;2.00;;;1.83;;
68050;SDS011;54839;51.364;7.246;2023-06-14T10:08:56;1.90;;;1.80;;
68050;SDS011;54839;51.364;7.246;2023-06-14T10:11:25;3.83;;;1.90;;
68050;SDS011;54839;51.364;7.246;2023-06-14T10:13:51;2.67;;;2.10;;
68050;SDS011;54839;51.364;7.246;2023-06-14T10:16:23;2.33;;;2.23;;
68050;SDS011;54839;51.364;7.246;2023-06-14T10:24:17;3.20;;;1.87;;
68050;SDS011;54839;51.364;7.246;2023-06-14T10:26:50;2.10;;;1.90;;
68050;SDS011;54839;51.364;7.246;2023-06-14T10:29:17;3.43;;;1.80;;
68050;SDS011;54839;51.364;7.246;2023-06-14T10:31:43;5.37;;;1.73;;
68050;SDS011;54839;51.364;7.246;2023-06-14T10:34:11;2.10;;;2.00;;
68050;SDS011;54839;51.364;7.246;2023-06-14T10:36:37;7.10;;;1.70;;
68050;SDS011;54839;51.364;7.246;2023-06-14T10:39:17;1.60;;;1.50;;
68050;SDS011;54839;51.364;7.246;2023-06-14T10:41:51;1.80;;;1.47;;
68050;SDS011;54839;51.364;7.246;2023-06-14T10:46:46;2.00;;;1.80;;
68050;SDS011;54839;51.364;7.246;2023-06-14T10:49:16;2.17;;;1.87;;
68050;SDS011;54839;51.364;7.246;2023-06-14T10:51:50;5.70;;;2.03;;
68050;SDS011;54839;51.364;7.246;2023-06-14T10:54:16;2.57;;;1.80;;
68050;SDS011;54839;51.364;7.246;2023-06-14T10:56:48;2.10;;;2.00;;
68050;SDS011;54839;51.364;7.246;2023-06-14T10:59:18;1.60;;;1.50;;
68050;SDS011;54839;51.364;7.246;2023-06-14T11:01:58;5.87;;;1.57;;
68050;SDS011;54839;51.364;7.246;2023-06-14T11:04:50;3.73;;;2.13;;
68050;SDS011;54839;51.364;7.246;2023-06-14T11:10:22;3.73;;;1.73;;
68050;SDS011;54839;51.364;7.246;2023-06-14T11:13:04;1.80;;;1.60;;
68050;SDS011;54839;51.364;7.246;2023-06-14T11:15:30;4.60;;;1.97;;
68050;SDS011;54839;51.364;7.246;2023-06-14T11:17:57;1.87;;;1.70;;
68050;SDS011;54839;51.364;7.246;2023-06-14T11:20:26;4.10;;;2.33;;
68050;SDS011;54839;51.364;7.246;2023-06-14T11:22:53;3.37;;;1.53;;
68050;SDS011;54839;51.364;7.246;2023-06-14T11:25:19;3.00;;;2.80;;
68050;SDS011;54839;51.364;7.246;2023-06-14T11:27:45;1.63;;;1.53;;
68050;SDS011;54839;51.364;7.246;2023-06-14T11:30:11;1.70;;;1.60;;
68050;SDS011;54839;51.364;7.246;2023-06-14T11:32:38;2.80;;;2.50;;
68050;SDS011;54839;51.364;7.246;2023-06-14T11:35:04;4.93;;;2.73;;
68050;SDS011;54839;51.364;7.246;2023-06-14T11:37:31;6.03;;;2.80;;
68050;SDS011;54839;51.364;7.246;2023-06-14T11:40:00;4.70;;;4.10;;
68050;SDS011;54839;51.364;7.246;2023-06-14T11:42:28;7.40;;;2.60;;
68050;SDS011;54839;51.364;7.246;2023-06-14T11:44:55;4.60;;;2.20;;
68050;SDS011;54839;51.364;7.246;2023-06-14T11:47:21;4.87;;;2.87;;
68050;SDS011;54839;51.364;7.246;2023-06-14T11:49:47;3.63;;;3.33;;
68050;SDS011;54839;51.364;7.246;2023-06-14T11:52:13;3.60;;;3.30;;
68050;SDS011;54839;51.364;7.246;2023-06-14T11:54:39;4.70;;;2.03;;
68050;SDS011;54839;51.364;7.246;2023-06-14T11:57:05;2.43;;;2.23;;
68050;SDS011;54839;51.364;7.246;2023-06-14T11:59:37;2.97;;;2.00;;
68050;SDS011;54839;51.364;7.246;2023-06-14T12:02:03;5.70;;;1.97;;
68050;SDS011;54839;51.364;7.246;2023-06-14T12:04:29;4.47;;;3.50;;
68050;SDS011;54839;51.364;7.246;2023-06-14T12:06:55;4.03;;;3.50;;
68050;SDS011;54839;51.364;7.246;2023-06-14T12:09:25;4.30;;;2.50;;
68050;SDS011;54839;51.364;7.246;2023-06-14T12:11:59;2.80;;;2.60;;
68050;SDS011;54839;51.364;7.246;2023-06-14T12:14:29;2.80;;;2.47;;
68050;SDS011;54839;51.364;7.246;2023-06-14T12:17:03;9.60;;;4.70;;
68050;SDS011;54839;51.364;7.246;2023-06-14T12:19:33;3.80;;;2.63;;
68050;SDS011;54839;51.364;7.246;2023-06-14T12:22:09;4.87;;;4.00;;
68050;SDS011;54839;51.364;7.246;2023-06-14T12:24:35;5.30;;;2.37;;
68050;SDS011;54839;51.364;7.246;2023-06-14T12:27:01;4.67;;;2.40;;
68050;SDS011;54839;51.364;7.246;2023-06-14T12:29:28;4.83;;;2.50;;
68050;SDS011;54839;51.364;7.246;2023-06-14T12:31:54;4.40;;;2.27;;
68050;SDS011;54839;51.364;7.246;2023-06-14T12:34:21;3.63;;;3.30;;
68050;SDS011;54839;51.364;7.246;2023-06-14T12:36:51;4.63;;;2.70;;
68050;SDS011;54839;51.364;7.246;2023-06-14T12:39:21;2.50;;;2.30;;
68050;SDS011;54839;51.364;7.246;2023-06-14T12:41:47;3.20;;;2.53;;
68050;SDS011;54839;51.364;7.246;2023-06-14T12:44:13;4.70;;;2.30;;
68050;SDS011;54839;51.364;7.246;2023-06-14T12:46:41;7.47;;;3.67;;
68050;SDS011;54839;51.364;7.246;2023-06-14T12:49:08;3.70;;;2.30;;
68050;SDS011;54839;51.364;7.246;2023-06-14T12:51:35;5.33;;;3.00;;
68050;SDS011;54839;51.364;7.246;2023-06-14T12:54:01;2.70;;;2.43;;
68050;SDS011;54839;51.364;7.246;2023-06-14T12:56:27;4.93;;;4.37;;
68050;SDS011;54839;51.364;7.246;2023-06-14T12:58:53;3.60;;;2.87;;
68050;SDS011;54839;51.364;7.246;2023-06-14T13:01:18;3.87;;;3.53;;
68050;SDS011;54839;51.364;7.246;2023-06-14T13:03:45;4.93;;;2.40;;
68050;SDS011;54839;51.364;7.246;2023-06-14T13:06:15;2.90;;;2.13;;
68050;SDS011;54839;51.364;7.246;2023-06-14T13:08:41;2.90;;;2.30;;
68050;SDS011;54839;51.364;7.246;2023-06-14T13:11:07;6.83;;;2.70;;
68050;SDS011;54839;51.364;7.246;2023-06-14T13:13:32;2.13;;;1.93;;
68050;SDS011;54839;51.364;7.246;2023-06-14T13:15:58;2.67;;;1.83;;
68050;SDS011;54839;51.364;7.246;2023-06-14T13:18:23;10.90;;;2.43;;
68050;SDS011;54839;51.364;7.246;2023-06-14T13:20:49;11.97;;;10.83;;
68050;SDS011;54839;51.364;7.246;2023-06-14T13:23:15;2.57;;;2.37;;
68050;SDS011;54839;51.364;7.246;2023-06-14T13:25:40;4.30;;;2.30;;
68050;SDS011;54839;51.364;7.246;2023-06-14T13:28:06;1.60;;;1.50;;
68050;SDS011;54839;51.364;7.246;2023-06-14T13:30:32;7.90;;;2.00;;
68050;SDS011;54839;51.364;7.246;2023-06-14T13:32:58;5.53;;;3.20;;
68050;SDS011;54839;51.364;7.246;2023-06-14T13:35:24;2.67;;;2.43;;
68050;SDS011;54839;51.364;7.246;2023-06-14T13:37:50;7.00;;;2.30;;
68050;SDS011;54839;51.364;7.246;2023-06-14T13:40:16;2.07;;;1.80;;
68050;SDS011;54839;51.364;7.246;2023-06-14T13:42:42;4.30;;;2.47;;
68050;SDS011;54839;51.364;7.246;2023-06-14T13:45:08;2.70;;;2.50;;
68050;SDS011;54839;51.364;7.246;2023-06-14T13:47:35;3.40;;;2.10;;
68050;SDS011;54839;51.364;7.246;2023-06-14T13:50:01;2.80;;;2.20;;
68050;SDS011;54839;51.364;7.246;2023-06-14T13:52:27;2.30;;;1.97;;
68050;SDS011;54839;51.364;7.246;2023-06-14T13:54:53;2.40;;;2.03;;
68050;SDS011;54839;51.364;7.246;2023-06-14T13:57:19;2.30;;;2.10;;
68050;SDS011;54839;51.364;7.246;2023-06-14T13:59:44;2.23;;;2.10;;
68050;SDS011;54839;51.364;7.246;2023-06-14T14:02:10;2.43;;;1.97;;
68050;SDS011;54839;51.364;7.246;2023-06-14T14:04:36;2.40;;;2.17;;
68050;SDS011;54839;51.364;7.246;2023-06-14T14:07:06;2.10;;;2.00;;
68050;SDS011;54839;51.364;7.246;2023-06-14T14:09:32;2.90;;;2.13;;
68050;SDS011;54839;51.364;7.246;2023-06-14T14:12:02;8.40;;;3.87;;
68050;SDS011;54839;51.364;7.246;2023-06-14T14:14:29;4.20;;;3.00;;
68050;SDS011;54839;51.364;7.246;2023-06-14T14:16:57;4.93;;;2.37;;
68050;SDS011;54839;51.364;7.246;2023-06-14T14:19:22;2.30;;;2.10;;
68050;SDS011;54839;51.364;7.246;2023-06-14T14:21:48;3.40;;;2.20;;
68050;SDS011;54839;51.364;7.246;2023-06-14T14:24:14;4.70;;;2.27;;
68050;SDS011;54839;51.364;7.246;2023-06-14T14:26:40;4.03;;;2.23;;
68050;SDS011;54839;51.364;7.246;2023-06-14T14:29:06;2.70;;;2.10;;
68050;SDS011;54839;51.364;7.246;2023-06-14T14:31:31;3.33;;;2.10;;
68050;SDS011;54839;51.364;7.246;2023-06-14T14:33:57;4.10;;;2.33;;
68050;SDS011;54839;51.364;7.246;2023-06-14T14:36:23;3.03;;;1.80;;
68050;SDS011;54839;51.364;7.246;2023-06-14T14:38:48;3.80;;;2.30;;
68050;SDS011;54839;51.364;7.246;2023-06-14T14:41:16;6.60;;;2.20;;
68050;SDS011;54839;51.364;7.246;2023-06-14T14:43:42;3.00;;;2.40;;
68050;SDS011;54839;51.364;7.246;2023-06-14T14:46:07;2.40;;;2.20;;
68050;SDS011;54839;51.364;7.246;2023-06-14T14:48:33;2.80;;;1.73;;
68050;SDS011;54839;51.364;7.246;2023-06-14T14:50:59;4.53;;;2.43;;
68050;SDS011;54839;51.364;7.246;2023-06-14T14:53:24;2.30;;;2.10;;
68050;SDS011;54839;51.364;7.246;2023-06-14T14:55:50;3.20;;;2.50;;